createdAt,value
2017-12-16T00:00:12.182Z,2.80
2017-12-16T00:02:16.132Z,2.93
2017-12-16T00:04:20.364Z,3.00
2017-12-16T00:06:23.812Z,2.50
2017-12-16T00:08:27.259Z,2.77
2017-12-16T00:10:30.726Z,3.40
2017-12-16T00:12:34.253Z,2.70
2017-12-16T00:14:37.717Z,2.63
2017-12-16T00:16:41.197Z,2.90
2017-12-16T00:18:45.437Z,3.23
2017-12-16T00:20:48.910Z,2.90
2017-12-16T00:22:53.142Z,2.77
2017-12-16T00:24:56.562Z,22.77
2017-12-16T00:27:00.887Z,26.67
2017-12-16T00:29:04.335Z,8.17
2017-12-16T00:31:07.823Z,5.57
2017-12-16T00:33:11.278Z,5.10
2017-12-16T00:35:14.755Z,3.70
2017-12-16T00:37:18.238Z,2.90
2017-12-16T00:39:21.671Z,3.10
2017-12-16T00:41:25.192Z,3.00
2017-12-16T00:43:28.642Z,2.80
2017-12-16T00:45:32.096Z,3.30
2017-12-16T00:47:35.559Z,3.83
2017-12-16T00:49:39.790Z,4.60
2017-12-16T00:51:44.023Z,4.80
2017-12-16T00:53:47.461Z,4.50
2017-12-16T00:55:50.950Z,4.70
2017-12-16T00:57:54.451Z,3.90
2017-12-16T00:59:59.079Z,3.73
2017-12-16T01:02:02.555Z,3.33
2017-12-16T01:04:05.995Z,3.00
2017-12-16T01:06:10.199Z,2.93
2017-12-16T01:08:15.255Z,2.90
2017-12-16T01:10:18.707Z,3.27
2017-12-16T01:12:22.202Z,2.93
2017-12-16T01:14:25.653Z,3.20
2017-12-16T01:16:29.104Z,3.40
2017-12-16T01:18:32.579Z,3.37
2017-12-16T01:20:36.028Z,3.60
2017-12-16T01:22:39.507Z,2.70
2017-12-16T01:24:42.910Z,3.17
2017-12-16T01:26:46.309Z,3.00
2017-12-16T01:28:49.744Z,3.30
2017-12-16T01:30:53.196Z,3.77
2017-12-16T01:32:56.629Z,2.93
2017-12-16T01:35:11.985Z,2.83
2017-12-16T01:37:27.226Z,3.20
2017-12-16T01:39:30.684Z,2.60
2017-12-16T01:41:34.163Z,3.47
2017-12-16T01:43:39.146Z,3.50
2017-12-16T01:45:42.621Z,3.30
2017-12-16T01:47:46.809Z,3.30
2017-12-16T01:49:51.102Z,3.30
2017-12-16T01:51:54.548Z,4.10
2017-12-16T01:53:57.996Z,3.97
2017-12-16T01:56:01.462Z,3.53
2017-12-16T01:58:04.947Z,3.63
2017-12-16T02:00:08.444Z,3.33
2017-12-16T02:02:11.969Z,4.10
2017-12-16T02:04:16.255Z,4.40
2017-12-16T02:06:19.770Z,4.17
2017-12-16T02:08:23.234Z,4.57
2017-12-16T02:10:26.678Z,5.30
2017-12-16T02:12:30.151Z,6.90
2017-12-16T02:14:33.631Z,7.23
2017-12-16T02:16:37.116Z,8.27
2017-12-16T02:18:40.605Z,7.57
2017-12-16T02:20:44.085Z,9.43
2017-12-16T02:22:47.591Z,10.53
2017-12-16T02:24:51.075Z,12.80
2017-12-16T02:26:54.601Z,13.70
2017-12-16T02:28:58.074Z,13.60
2017-12-16T02:31:01.557Z,15.10
2017-12-16T02:33:05.064Z,16.63
2017-12-16T02:35:08.550Z,16.70
2017-12-16T02:37:12.087Z,16.20
2017-12-16T02:39:15.629Z,17.07
2017-12-16T02:41:19.118Z,15.17
2017-12-16T02:43:22.634Z,16.97
2017-12-16T02:45:26.134Z,14.30
2017-12-16T02:47:29.618Z,12.90
2017-12-16T02:49:33.113Z,12.63
2017-12-16T02:51:36.594Z,13.90
2017-12-16T02:53:40.117Z,13.80
2017-12-16T02:55:43.629Z,13.60
2017-12-16T02:57:47.219Z,13.80
2017-12-16T02:59:50.691Z,17.13
2017-12-16T03:01:54.146Z,15.37
2017-12-16T03:03:58.415Z,15.27
2017-12-16T03:06:01.914Z,16.53
2017-12-16T03:08:05.377Z,15.83
2017-12-16T03:10:08.888Z,17.47
2017-12-16T03:12:12.435Z,16.90
2017-12-16T03:14:16.750Z,17.07
2017-12-16T03:16:20.986Z,15.17
2017-12-16T03:18:24.455Z,14.30
2017-12-16T03:20:28.737Z,15.00
2017-12-16T03:22:33.018Z,14.97
2017-12-16T03:24:36.752Z,14.20
2017-12-16T03:26:40.233Z,15.17
2017-12-16T03:28:43.699Z,15.13
2017-12-16T03:30:47.211Z,15.50
2017-12-16T03:32:50.721Z,14.10
2017-12-16T03:34:54.230Z,13.87
2017-12-16T03:36:58.494Z,14.10
2017-12-16T03:39:02.006Z,13.67
2017-12-16T03:41:05.539Z,15.30
2017-12-16T03:43:09.794Z,15.83
2017-12-16T03:45:13.326Z,14.97
2017-12-16T03:47:16.810Z,14.90
2017-12-16T03:49:20.286Z,14.63
2017-12-16T03:51:23.792Z,14.57
2017-12-16T03:53:27.266Z,14.40
2017-12-16T03:55:30.759Z,14.93
2017-12-16T03:57:34.257Z,14.73
2017-12-16T03:59:37.727Z,15.00
2017-12-16T04:01:41.226Z,13.57
2017-12-16T04:03:45.462Z,12.00
2017-12-16T04:05:48.986Z,14.63
2017-12-16T04:07:52.480Z,13.80
2017-12-16T04:09:55.978Z,13.33
2017-12-16T04:11:59.481Z,13.17
2017-12-16T04:14:02.940Z,12.50
2017-12-16T04:16:06.446Z,11.30
2017-12-16T04:18:09.996Z,13.23
2017-12-16T04:20:14.259Z,13.10
2017-12-16T04:22:17.784Z,13.90
2017-12-16T04:24:21.239Z,10.73
2017-12-16T04:26:24.819Z,13.40
2017-12-16T04:28:28.290Z,12.87
2017-12-16T04:30:32.541Z,12.77
2017-12-16T04:32:36.106Z,11.90
2017-12-16T04:34:40.351Z,13.03
2017-12-16T04:36:44.602Z,12.47
2017-12-16T04:38:48.083Z,12.77
2017-12-16T04:40:51.563Z,12.87
2017-12-16T04:42:55.104Z,13.80
2017-12-16T04:44:58.672Z,13.30
2017-12-16T04:47:02.247Z,13.47
2017-12-16T04:49:05.921Z,14.23
2017-12-16T04:51:09.444Z,13.83
2017-12-16T04:53:12.959Z,13.20
2017-12-16T04:55:16.542Z,13.70
2017-12-16T04:57:20.147Z,12.43
2017-12-16T04:59:23.615Z,14.47
2017-12-16T05:01:27.094Z,14.47
2017-12-16T05:03:30.675Z,13.60
2017-12-16T05:05:34.995Z,14.60
2017-12-16T05:07:39.280Z,13.70
2017-12-16T05:09:42.864Z,14.00
2017-12-16T05:11:46.351Z,14.93
2017-12-16T05:13:49.858Z,14.90
2017-12-16T05:15:53.352Z,14.43
2017-12-16T05:17:56.873Z,14.27
2017-12-16T05:20:00.362Z,15.20
2017-12-16T05:22:03.828Z,14.90
2017-12-16T05:24:07.390Z,15.90
2017-12-16T05:26:10.871Z,17.07
2017-12-16T05:28:15.122Z,15.40
2017-12-16T05:30:19.351Z,18.43
2017-12-16T05:32:22.842Z,17.03
2017-12-16T05:34:26.352Z,17.50
2017-12-16T05:36:29.831Z,17.60
2017-12-16T05:38:33.374Z,18.63
2017-12-16T05:40:37.653Z,18.93
2017-12-16T05:42:41.133Z,17.47
2017-12-16T05:44:44.658Z,16.60
2017-12-16T05:46:48.931Z,13.90
2017-12-16T05:48:52.460Z,14.30
2017-12-16T05:50:55.946Z,14.70
2017-12-16T05:52:59.484Z,12.87
2017-12-16T05:55:03.763Z,13.03
2017-12-16T05:57:07.281Z,12.07
2017-12-16T05:59:10.840Z,11.00
2017-12-16T06:01:14.304Z,10.60
2017-12-16T06:03:17.776Z,9.00
2017-12-16T06:05:21.270Z,9.87
2017-12-16T06:07:24.752Z,11.43
2017-12-16T06:09:29.040Z,10.00
2017-12-16T06:11:32.551Z,9.87
2017-12-16T06:13:36.838Z,9.33
2017-12-16T06:15:40.660Z,10.63
2017-12-16T06:17:44.157Z,12.87
2017-12-16T06:19:47.731Z,12.07
2017-12-16T06:21:51.263Z,10.90
2017-12-16T06:23:54.794Z,10.80
2017-12-16T06:25:58.304Z,9.73
2017-12-16T06:28:01.771Z,10.23
2017-12-16T06:30:05.296Z,9.97
2017-12-16T06:32:09.588Z,10.10
2017-12-16T06:34:13.043Z,10.23
2017-12-16T06:36:16.671Z,11.50
2017-12-16T06:38:20.201Z,11.40
2017-12-16T06:40:23.706Z,11.30
2017-12-16T06:42:27.234Z,12.20
2017-12-16T06:44:31.460Z,13.00
2017-12-16T06:46:34.953Z,10.80
2017-12-16T06:48:38.429Z,10.80
2017-12-16T06:50:41.977Z,11.17
2017-12-16T06:52:45.488Z,11.03
2017-12-16T06:54:48.967Z,11.77
2017-12-16T06:56:52.465Z,11.03
2017-12-16T06:58:55.946Z,11.53
2017-12-16T07:00:59.506Z,12.83
2017-12-16T07:03:03.746Z,15.93
2017-12-16T07:05:07.215Z,12.77
2017-12-16T07:07:10.738Z,12.40
2017-12-16T07:09:14.211Z,13.17
2017-12-16T07:11:18.543Z,12.53
2017-12-16T07:13:23.677Z,12.83
2017-12-16T07:15:27.252Z,11.83
2017-12-16T07:17:30.780Z,14.80
2017-12-16T07:19:34.255Z,12.27
2017-12-16T07:21:37.888Z,14.67
2017-12-16T07:23:41.359Z,14.50
2017-12-16T07:25:45.606Z,16.03
2017-12-16T07:27:49.898Z,16.57
2017-12-16T07:29:53.345Z,17.07
2017-12-16T07:31:56.860Z,15.80
2017-12-16T07:34:00.364Z,16.07
2017-12-16T07:36:03.846Z,15.87
2017-12-16T07:38:07.395Z,15.10
2017-12-16T07:40:10.840Z,15.13
2017-12-16T07:42:15.056Z,13.10
2017-12-16T07:44:19.283Z,14.93
2017-12-16T07:46:22.730Z,15.10
2017-12-16T07:48:26.327Z,14.47
2017-12-16T07:50:29.769Z,13.80
2017-12-16T07:52:33.222Z,14.30
2017-12-16T07:54:36.696Z,13.33
2017-12-16T07:56:40.159Z,14.50
2017-12-16T07:58:43.614Z,16.77
2017-12-16T08:00:47.100Z,16.60
2017-12-16T08:02:50.623Z,16.57
2017-12-16T08:04:54.130Z,17.00
2017-12-16T08:06:57.581Z,16.30
2017-12-16T08:09:01.899Z,16.47
2017-12-16T08:11:06.144Z,15.40
2017-12-16T08:13:09.613Z,16.20
2017-12-16T08:15:13.869Z,14.83
2017-12-16T08:17:17.298Z,15.90
2017-12-16T08:19:20.769Z,16.20
2017-12-16T08:21:24.427Z,15.37
2017-12-16T08:23:28.674Z,16.73
2017-12-16T08:25:33.254Z,17.60
2017-12-16T08:27:37.496Z,15.70
2017-12-16T08:29:41.085Z,15.30
2017-12-16T08:31:44.787Z,16.73
2017-12-16T08:33:48.385Z,15.60
2017-12-16T08:35:51.883Z,14.77
2017-12-16T08:37:55.347Z,18.60
2017-12-16T08:39:59.642Z,19.80
2017-12-16T08:42:04.624Z,19.40
2017-12-16T08:44:08.903Z,16.80
2017-12-16T08:46:13.122Z,17.77
2017-12-16T08:48:16.697Z,15.40
2017-12-16T08:50:20.196Z,17.40
2017-12-16T08:52:23.854Z,16.13
2017-12-16T08:54:28.120Z,15.07
2017-12-16T08:56:32.338Z,18.93
2017-12-16T08:58:36.543Z,16.70
2017-12-16T09:00:40.790Z,16.37
2017-12-16T09:02:44.266Z,16.70
2017-12-16T09:04:47.680Z,15.50
2017-12-16T09:06:51.149Z,14.33
2017-12-16T09:08:55.069Z,15.03
2017-12-16T09:10:58.510Z,16.40
2017-12-16T09:13:02.397Z,14.73
2017-12-16T09:15:06.838Z,16.97
2017-12-16T09:17:10.417Z,14.83
2017-12-16T09:19:13.842Z,14.27
2017-12-16T09:21:17.294Z,13.00
2017-12-16T09:23:20.848Z,13.70
2017-12-16T09:25:25.103Z,15.70
2017-12-16T09:27:28.729Z,14.10
2017-12-16T09:29:32.159Z,14.40
2017-12-16T09:31:35.584Z,14.47
2017-12-16T09:33:39.031Z,14.43
2017-12-16T09:35:42.577Z,15.00
2017-12-16T09:37:46.135Z,15.40
2017-12-16T09:39:49.653Z,16.27
2017-12-16T09:41:53.191Z,16.37
2017-12-16T09:43:56.935Z,13.60
2017-12-16T09:46:01.196Z,13.47
2017-12-16T09:48:05.501Z,15.23
2017-12-16T09:50:08.942Z,16.63
2017-12-16T09:52:13.645Z,16.10
2017-12-16T09:54:17.118Z,15.90
2017-12-16T09:56:21.559Z,15.10
2017-12-16T09:58:25.327Z,13.93
2017-12-16T10:00:28.776Z,14.70
2017-12-16T10:02:32.231Z,15.27
2017-12-16T10:04:36.500Z,15.20
2017-12-16T10:06:39.941Z,13.97
2017-12-16T10:08:43.422Z,15.87
2017-12-16T10:10:46.922Z,13.33
2017-12-16T10:12:52.404Z,15.90
2017-12-16T10:14:56.626Z,15.70
2017-12-16T10:17:00.093Z,16.80
2017-12-16T10:19:04.384Z,13.80
2017-12-16T10:21:07.807Z,14.30
2017-12-16T10:23:12.044Z,14.40
2017-12-16T10:25:15.514Z,15.90
2017-12-16T10:27:19.774Z,15.70
2017-12-16T10:29:23.259Z,15.37
2017-12-16T10:31:26.760Z,17.30
2017-12-16T10:33:30.570Z,17.30
2017-12-16T10:35:34.045Z,15.40
2017-12-16T10:37:37.805Z,15.27
2017-12-16T10:39:42.002Z,15.50
2017-12-16T10:41:45.547Z,15.50
2017-12-16T10:43:48.993Z,16.50
2017-12-16T10:45:53.224Z,14.37
2017-12-16T10:47:57.425Z,15.30
2017-12-16T10:50:00.930Z,15.50
2017-12-16T10:52:04.431Z,18.00
2017-12-16T10:54:07.924Z,18.10
2017-12-16T10:56:12.174Z,17.20
2017-12-16T10:58:15.617Z,17.47
2017-12-16T11:00:19.877Z,19.00
2017-12-16T11:02:23.393Z,15.87
2017-12-16T11:04:26.825Z,17.17
2017-12-16T11:06:31.061Z,18.23
2017-12-16T11:08:34.528Z,18.17
2017-12-16T11:10:37.976Z,18.27
2017-12-16T11:12:41.477Z,16.93
2017-12-16T11:14:44.914Z,16.50
2017-12-16T11:16:49.197Z,14.83
2017-12-16T11:18:52.631Z,16.80
2017-12-16T11:20:58.072Z,16.50
2017-12-16T11:23:01.591Z,16.00
2017-12-16T11:25:05.052Z,17.77
2017-12-16T11:27:09.291Z,15.10
2017-12-16T11:29:12.731Z,18.67
2017-12-16T11:31:16.256Z,18.60
2017-12-16T11:33:20.453Z,16.77
2017-12-16T11:35:23.986Z,15.17
2017-12-16T11:37:27.468Z,17.63
2017-12-16T11:39:30.907Z,15.27
2017-12-16T11:41:34.384Z,15.90
2017-12-16T11:43:37.842Z,16.70
2017-12-16T11:45:42.072Z,17.83
2017-12-16T11:47:45.563Z,16.17
2017-12-16T11:49:48.978Z,16.20
2017-12-16T11:51:52.467Z,14.60
2017-12-16T11:53:55.889Z,13.10
2017-12-16T11:55:59.298Z,12.33
2017-12-16T11:58:02.755Z,11.97
2017-12-16T12:00:06.256Z,12.30
2017-12-16T12:02:09.785Z,10.90
2017-12-16T12:04:13.201Z,10.00
2017-12-16T12:06:17.392Z,10.60
2017-12-16T12:08:20.875Z,11.00
2017-12-16T12:10:24.323Z,11.37
2017-12-16T12:12:27.811Z,11.80
2017-12-16T12:14:31.224Z,11.63
2017-12-16T12:16:34.706Z,11.97
2017-12-16T12:18:38.263Z,11.50
2017-12-16T12:20:41.694Z,11.67
2017-12-16T12:22:45.185Z,10.70
2017-12-16T12:24:48.650Z,12.90
2017-12-16T12:26:52.843Z,9.80
2017-12-16T12:28:56.291Z,11.27
2017-12-16T12:30:59.736Z,11.20
2017-12-16T12:33:04.103Z,11.50
2017-12-16T12:35:07.511Z,10.10
2017-12-16T12:37:10.943Z,11.27
2017-12-16T12:39:15.272Z,11.33
2017-12-16T12:41:18.720Z,11.97
2017-12-16T12:43:22.140Z,12.07
2017-12-16T12:45:25.589Z,9.33
2017-12-16T12:47:29.006Z,10.67
2017-12-16T12:49:32.479Z,10.57
2017-12-16T12:51:35.957Z,9.93
2017-12-16T12:53:40.272Z,10.80
2017-12-16T12:55:43.728Z,10.20
2017-12-16T12:57:47.418Z,10.07
2017-12-16T12:59:50.860Z,10.17
2017-12-16T13:01:54.268Z,9.57
2017-12-16T13:03:57.710Z,10.13
2017-12-16T13:06:01.463Z,8.60
2017-12-16T13:08:05.280Z,8.77
2017-12-16T13:10:08.860Z,8.27
2017-12-16T13:12:13.090Z,8.60
2017-12-16T13:14:17.271Z,8.10
2017-12-16T13:16:20.761Z,8.27
2017-12-16T13:18:24.351Z,8.03
2017-12-16T13:20:28.061Z,7.90
2017-12-16T13:22:31.489Z,7.63
2017-12-16T13:24:36.326Z,8.20
2017-12-16T13:26:39.774Z,9.50
2017-12-16T13:28:44.055Z,7.90
2017-12-16T13:30:49.738Z,8.03
2017-12-16T13:32:53.174Z,8.20
2017-12-16T13:34:56.598Z,6.80
2017-12-16T13:37:00.060Z,7.20
2017-12-16T13:39:03.612Z,7.27
2017-12-16T13:41:07.085Z,8.30
2017-12-16T13:43:12.936Z,7.60
2017-12-16T13:45:19.115Z,6.70
2017-12-16T13:47:22.757Z,6.57
2017-12-16T13:49:26.208Z,6.67
2017-12-16T13:51:29.688Z,8.00
2017-12-16T13:53:33.469Z,6.33
2017-12-16T13:55:38.139Z,7.17
2017-12-16T13:57:42.481Z,6.07
2017-12-16T13:59:46.057Z,6.33
2017-12-16T14:01:50.457Z,7.10
2017-12-16T14:03:54.476Z,7.33
2017-12-16T14:05:57.948Z,6.73
2017-12-16T14:08:01.389Z,7.80
2017-12-16T14:10:05.467Z,7.57
2017-12-16T14:12:08.943Z,6.60
2017-12-16T14:14:13.923Z,8.40
2017-12-16T14:16:18.273Z,9.57
2017-12-16T14:18:22.516Z,8.00
2017-12-16T14:20:25.950Z,8.67
2017-12-16T14:22:29.470Z,7.33
2017-12-16T14:24:33.362Z,7.63
2017-12-16T14:26:37.567Z,9.37
2017-12-16T14:28:41.828Z,8.37
2017-12-16T14:30:45.313Z,8.87
2017-12-16T14:32:48.803Z,8.60
2017-12-16T14:34:52.237Z,9.10
2017-12-16T14:36:55.860Z,8.83
2017-12-16T14:39:00.111Z,8.57
2017-12-16T14:41:03.632Z,8.93
2017-12-16T14:43:08.006Z,9.60
2017-12-16T14:45:11.471Z,10.70
2017-12-16T14:47:15.502Z,8.10
2017-12-16T14:49:19.000Z,8.53
2017-12-16T14:51:22.481Z,10.63
2017-12-16T14:53:26.919Z,9.30
2017-12-16T14:55:30.402Z,9.90
2017-12-16T14:57:33.841Z,9.40
2017-12-16T14:59:37.336Z,8.90
2017-12-16T15:01:40.759Z,9.00
2017-12-16T15:03:44.223Z,8.40
2017-12-16T15:05:47.670Z,8.87
2017-12-16T15:07:52.203Z,8.47
2017-12-16T15:09:55.661Z,8.03
2017-12-16T15:11:59.094Z,11.60
2017-12-16T15:14:03.339Z,12.10
2017-12-16T15:16:06.792Z,15.03
2017-12-16T15:18:10.867Z,12.20
2017-12-16T15:20:15.118Z,14.33
2017-12-16T15:22:18.918Z,10.80
2017-12-16T15:24:22.715Z,9.93
2017-12-16T15:26:26.288Z,13.83
2017-12-16T15:28:29.786Z,17.37
2017-12-16T15:30:33.208Z,14.83
2017-12-16T15:32:37.411Z,21.20
2017-12-16T15:34:42.297Z,17.37
2017-12-16T15:36:45.841Z,19.00
2017-12-16T15:38:50.057Z,17.27
2017-12-16T15:40:53.544Z,13.33
2017-12-16T15:42:57.673Z,9.10
2017-12-16T15:45:01.120Z,9.67
2017-12-16T15:47:05.007Z,9.83
2017-12-16T15:49:09.594Z,9.73
2017-12-16T15:51:13.102Z,10.90
2017-12-16T15:53:16.625Z,9.83
2017-12-16T15:55:20.885Z,11.07
2017-12-16T15:57:24.467Z,11.70
2017-12-16T15:59:27.914Z,9.57
2017-12-16T16:01:31.346Z,10.23
2017-12-16T16:03:34.831Z,11.07
2017-12-16T16:05:39.076Z,10.47
2017-12-16T16:07:42.542Z,9.20
2017-12-16T16:09:46.793Z,9.93
2017-12-16T16:11:51.512Z,10.40
2017-12-16T16:13:55.033Z,10.67
2017-12-16T16:15:58.512Z,9.83
2017-12-16T16:18:01.969Z,10.87
2017-12-16T16:20:05.490Z,8.70
2017-12-16T16:22:09.056Z,9.67
2017-12-16T16:24:12.559Z,8.37
2017-12-16T16:26:16.800Z,9.40
2017-12-16T16:28:22.032Z,9.17
2017-12-16T16:30:26.329Z,9.00
2017-12-16T16:32:31.112Z,7.30
2017-12-16T16:34:34.679Z,8.70
2017-12-16T16:36:38.137Z,7.43
2017-12-16T16:38:42.301Z,8.73
2017-12-16T16:40:46.665Z,8.60
2017-12-16T16:42:51.290Z,8.07
2017-12-16T16:44:57.185Z,8.80
2017-12-16T16:47:01.675Z,12.20
2017-12-16T16:49:05.154Z,11.43
2017-12-16T16:51:11.259Z,11.13
2017-12-16T16:53:16.473Z,9.27
2017-12-16T16:55:20.127Z,11.47
2017-12-16T16:57:24.338Z,10.93
2017-12-16T16:59:28.761Z,9.63
2017-12-16T17:01:33.837Z,9.93
2017-12-16T17:03:38.103Z,9.67
2017-12-16T17:05:41.614Z,9.10
2017-12-16T17:07:45.990Z,8.70
2017-12-16T17:09:49.452Z,8.33
2017-12-16T17:11:53.843Z,8.53
2017-12-16T17:13:58.102Z,8.30
2017-12-16T17:16:01.574Z,8.93
2017-12-16T17:18:05.017Z,9.57
2017-12-16T17:20:08.488Z,9.60
2017-12-16T17:22:12.063Z,9.90
2017-12-16T17:24:15.740Z,9.07
2017-12-16T17:26:19.348Z,8.77
2017-12-16T17:28:22.873Z,8.47
2017-12-16T17:30:26.303Z,9.90
2017-12-16T17:32:30.517Z,9.63
2017-12-16T17:34:33.974Z,10.10
2017-12-16T17:36:37.542Z,10.23
2017-12-16T17:38:42.160Z,10.93
2017-12-16T17:40:45.835Z,13.40
2017-12-16T17:42:49.319Z,11.60
2017-12-16T17:44:53.656Z,11.80
2017-12-16T17:46:57.148Z,11.47
2017-12-16T17:49:00.578Z,12.37
2017-12-16T17:51:04.017Z,14.63
2017-12-16T17:53:08.177Z,17.73
2017-12-16T17:55:12.105Z,15.00
2017-12-16T17:57:15.605Z,14.43
2017-12-16T17:59:19.071Z,13.47
2017-12-16T18:01:22.540Z,14.67
2017-12-16T18:03:26.110Z,13.10
2017-12-16T18:05:29.583Z,15.27
2017-12-16T18:07:33.113Z,19.40
2017-12-16T18:09:36.670Z,16.80
2017-12-16T18:11:40.151Z,18.93
2017-12-16T18:13:43.644Z,18.53
2017-12-16T18:15:47.117Z,12.87
2017-12-16T18:17:50.682Z,15.90
2017-12-16T18:19:54.175Z,14.07
2017-12-16T18:21:57.617Z,14.27
2017-12-16T18:24:01.097Z,12.33
2017-12-16T18:26:04.566Z,12.80
2017-12-16T18:28:08.078Z,12.50
2017-12-16T18:30:11.585Z,14.53
2017-12-16T18:32:15.200Z,14.73
2017-12-16T18:34:18.690Z,16.40
2017-12-16T18:36:23.462Z,15.83
2017-12-16T18:38:26.902Z,14.47
2017-12-16T18:40:30.409Z,13.87
2017-12-16T18:42:33.849Z,13.20
2017-12-16T18:44:37.351Z,14.60
2017-12-16T18:46:40.791Z,17.87
2017-12-16T18:48:44.247Z,20.70
2017-12-16T18:50:48.153Z,16.67
2017-12-16T18:52:51.634Z,13.40
2017-12-16T18:54:55.145Z,15.90
2017-12-16T18:56:59.148Z,14.63
2017-12-16T18:59:02.607Z,12.23
2017-12-16T19:01:06.876Z,12.17
2017-12-16T19:03:10.341Z,12.20
2017-12-16T19:05:14.034Z,14.77
2017-12-16T19:07:17.474Z,13.30
2017-12-16T19:09:20.922Z,13.37
2017-12-16T19:11:24.712Z,13.13
2017-12-16T19:13:29.731Z,11.60
2017-12-16T19:15:33.571Z,13.67
2017-12-16T19:17:37.635Z,11.73
2017-12-16T19:19:41.302Z,12.63
2017-12-16T19:21:45.012Z,10.80
2017-12-16T19:23:48.638Z,10.70
2017-12-16T19:25:52.119Z,8.90
2017-12-16T19:27:55.863Z,9.30
2017-12-16T19:30:01.997Z,9.30
2017-12-16T19:32:05.698Z,8.73
2017-12-16T19:34:10.113Z,8.83
2017-12-16T19:36:14.139Z,9.10
2017-12-16T19:38:17.647Z,10.30
2017-12-16T19:40:21.076Z,9.20
2017-12-16T19:42:24.965Z,9.70
2017-12-16T19:44:28.442Z,11.60
2017-12-16T19:46:31.902Z,9.93
2017-12-16T19:48:35.406Z,10.00
2017-12-16T19:50:38.887Z,10.47
2017-12-16T19:52:42.510Z,11.60
2017-12-16T19:54:45.983Z,11.03
2017-12-16T19:56:49.467Z,12.57
2017-12-16T19:58:54.365Z,12.83
2017-12-16T20:00:57.821Z,14.40
2017-12-16T20:03:01.471Z,14.27
2017-12-16T20:05:05.597Z,12.70
2017-12-16T20:07:09.257Z,13.60
2017-12-16T20:09:13.896Z,10.33
2017-12-16T20:11:17.956Z,13.13
2017-12-16T20:13:22.328Z,12.37
2017-12-16T20:15:26.861Z,12.20
2017-12-16T20:17:32.601Z,11.30
2017-12-16T20:19:36.988Z,10.30
2017-12-16T20:21:40.418Z,10.63
2017-12-16T20:23:43.880Z,12.20
2017-12-16T20:25:47.590Z,11.97
2017-12-16T20:27:51.896Z,11.40
2017-12-16T20:29:55.405Z,12.33
2017-12-16T20:31:58.853Z,11.80
2017-12-16T20:34:02.395Z,10.87
2017-12-16T20:36:05.835Z,8.70
2017-12-16T20:38:09.361Z,9.33
2017-12-16T20:40:12.860Z,9.60
2017-12-16T20:42:16.589Z,10.60
2017-12-16T20:44:20.818Z,11.97
2017-12-16T20:46:24.896Z,11.93
2017-12-16T20:48:28.687Z,10.80
2017-12-16T20:50:33.235Z,9.90
2017-12-16T20:52:37.972Z,10.23
2017-12-16T20:54:41.743Z,9.00
2017-12-16T20:56:46.199Z,10.47
2017-12-16T20:58:49.671Z,10.20
2017-12-16T21:00:53.242Z,10.50
2017-12-16T21:02:56.724Z,9.30
2017-12-16T21:05:00.198Z,10.83
2017-12-16T21:07:04.598Z,9.53
2017-12-16T21:09:08.676Z,11.30
2017-12-16T21:11:13.614Z,8.40
2017-12-16T21:13:17.276Z,8.37
2017-12-16T21:15:20.730Z,8.93
2017-12-16T21:17:25.139Z,8.90
2017-12-16T21:19:29.156Z,7.83
2017-12-16T21:21:32.642Z,7.77
2017-12-16T21:23:36.080Z,8.00
2017-12-16T21:25:39.698Z,7.53
2017-12-16T21:27:43.360Z,8.00
2017-12-16T21:29:46.776Z,8.23
2017-12-16T21:31:50.332Z,7.93
2017-12-16T21:33:53.793Z,7.77
2017-12-16T21:35:58.000Z,8.37
2017-12-16T21:38:01.662Z,10.57
2017-12-16T21:40:06.419Z,9.10
2017-12-16T21:42:10.662Z,9.90
2017-12-16T21:44:14.078Z,7.77
2017-12-16T21:46:17.543Z,7.97
2017-12-16T21:48:21.769Z,9.80
2017-12-16T21:50:25.191Z,11.03
2017-12-16T21:52:28.798Z,9.27
2017-12-16T21:54:32.222Z,9.13
2017-12-16T21:56:35.807Z,9.67
2017-12-16T21:58:39.455Z,6.90
2017-12-16T22:00:42.938Z,8.03
2017-12-16T22:02:47.179Z,9.67
2017-12-16T22:04:50.620Z,10.30
2017-12-16T22:06:54.833Z,9.07
2017-12-16T22:08:59.192Z,7.33
2017-12-16T22:11:04.593Z,9.17
2017-12-16T22:13:08.974Z,8.10
2017-12-16T22:15:12.732Z,9.53
2017-12-16T22:17:16.192Z,9.43
2017-12-16T22:19:21.332Z,9.90
2017-12-16T22:21:26.974Z,9.80
2017-12-16T22:23:31.273Z,10.20
2017-12-16T22:25:34.880Z,9.27
2017-12-16T22:27:38.316Z,8.37
2017-12-16T22:29:42.419Z,7.63
2017-12-16T22:31:46.049Z,7.63
2017-12-16T22:33:49.498Z,7.80
2017-12-16T22:35:52.936Z,8.37
2017-12-16T22:37:56.396Z,8.73
2017-12-16T22:40:00.664Z,7.73
2017-12-16T22:42:06.530Z,9.10
2017-12-16T22:44:12.613Z,9.47
2017-12-16T22:46:16.972Z,8.40
2017-12-16T22:48:21.108Z,9.30
2017-12-16T22:50:24.728Z,9.23
2017-12-16T22:52:28.346Z,8.10
2017-12-16T22:54:32.883Z,9.23
2017-12-16T22:56:36.330Z,10.47
2017-12-16T22:58:40.012Z,8.57
2017-12-16T23:00:45.075Z,9.50
2017-12-16T23:02:49.286Z,8.93
2017-12-16T23:04:53.680Z,8.80
2017-12-16T23:06:57.396Z,8.30
2017-12-16T23:09:00.842Z,8.23
2017-12-16T23:11:04.761Z,9.47
2017-12-16T23:13:08.330Z,12.47
2017-12-16T23:15:12.121Z,13.10
2017-12-16T23:17:15.671Z,16.40
2017-12-16T23:19:19.490Z,11.10
2017-12-16T23:21:23.258Z,12.63
2017-12-16T23:23:27.600Z,10.40
2017-12-16T23:25:31.128Z,10.47
2017-12-16T23:27:35.225Z,9.27
2017-12-16T23:29:38.795Z,9.93
2017-12-16T23:31:42.324Z,9.03
2017-12-16T23:33:45.958Z,12.60
2017-12-16T23:35:50.242Z,14.03
2017-12-16T23:37:53.724Z,13.47
2017-12-16T23:39:57.241Z,11.60
2017-12-16T23:42:00.910Z,13.67
2017-12-16T23:44:04.376Z,13.60
2017-12-16T23:46:07.956Z,11.10
2017-12-16T23:48:11.596Z,10.60
2017-12-16T23:50:15.072Z,11.00
2017-12-16T23:52:18.955Z,9.90
2017-12-16T23:54:22.523Z,9.60
2017-12-16T23:56:26.086Z,10.40
2017-12-16T23:58:29.611Z,10.00
